createdAt,value
2018-09-12T00:00:27.072Z,85.57
2018-09-12T00:01:28.465Z,85.57
2018-09-12T00:02:29.848Z,85.38
2018-09-12T00:03:31.226Z,85.86
2018-09-12T00:04:33.325Z,85.77
2018-09-12T00:05:34.705Z,85.67
2018-09-12T00:06:36.098Z,85.67
2018-09-12T00:07:37.490Z,85.67
2018-09-12T00:08:38.880Z,85.57
2018-09-12T00:09:40.816Z,85.47
2018-09-12T00:10:42.886Z,85.67
2018-09-12T00:11:44.775Z,86.11
2018-09-12T00:12:46.151Z,85.96
2018-09-12T00:13:47.539Z,85.96
2018-09-12T00:14:48.929Z,86.21
2018-09-12T00:15:50.308Z,85.96
2018-09-12T00:16:51.691Z,86.01
2018-09-12T00:17:53.076Z,86.01
2018-09-12T00:18:55.415Z,85.96
2018-09-12T00:19:56.801Z,86.25
2018-09-12T00:20:58.190Z,85.96
2018-09-12T00:21:59.570Z,85.57
2018-09-12T00:23:00.964Z,85.96
2018-09-12T00:24:02.350Z,86.11
2018-09-12T00:25:03.744Z,85.67
2018-09-12T00:26:05.124Z,85.67
2018-09-12T00:27:06.506Z,86.05
2018-09-12T00:28:07.896Z,85.67
2018-09-12T00:29:09.288Z,85.63
2018-09-12T00:30:10.670Z,85.77
2018-09-12T00:31:12.058Z,85.34
2018-09-12T00:32:13.443Z,85.67
2018-09-12T00:33:14.835Z,85.67
2018-09-12T00:34:16.227Z,85.86
2018-09-12T00:35:17.611Z,85.67
2018-09-12T00:36:19.849Z,85.38
2018-09-12T00:37:21.931Z,85.86
2018-09-12T00:38:23.324Z,85.34
2018-09-12T00:39:24.702Z,85.86
2018-09-12T00:40:29.015Z,85.47
2018-09-12T00:41:31.708Z,85.47
2018-09-12T00:42:33.089Z,85.57
2018-09-12T00:43:35.151Z,85.67
2018-09-12T00:44:36.543Z,85.67
2018-09-12T00:45:39.376Z,85.77
2018-09-12T00:46:40.760Z,85.72
2018-09-12T00:47:42.177Z,85.63
2018-09-12T00:48:43.554Z,85.67
2018-09-12T00:49:44.940Z,85.38
2018-09-12T00:50:46.334Z,85.63
2018-09-12T00:51:47.722Z,85.67
2018-09-12T00:52:49.656Z,85.53
2018-09-12T00:53:51.969Z,85.24
2018-09-12T00:54:53.360Z,85.43
2018-09-12T00:55:54.758Z,85.53
2018-09-12T00:56:56.154Z,85.67
2018-09-12T00:57:57.537Z,85.53
2018-09-12T00:58:58.929Z,86.21
2018-09-12T01:00:00.309Z,85.91
2018-09-12T01:01:02.362Z,85.67
2018-09-12T01:02:03.755Z,86.11
2018-09-12T01:03:05.135Z,86.11
2018-09-12T01:04:07.364Z,86.11
2018-09-12T01:05:08.751Z,85.91
2018-09-12T01:06:10.139Z,85.91
2018-09-12T01:07:12.196Z,85.96
2018-09-12T01:08:14.217Z,86.21
2018-09-12T01:09:15.603Z,86.21
2018-09-12T01:10:17.933Z,85.82
2018-09-12T01:11:19.871Z,86.11
2018-09-12T01:12:21.263Z,86.21
2018-09-12T01:13:24.302Z,86.21
2018-09-12T01:14:25.989Z,86.21
2018-09-12T01:15:29.166Z,86.11
2018-09-12T01:16:30.578Z,86.11
2018-09-12T01:17:32.015Z,85.91
2018-09-12T01:18:33.390Z,86.15
2018-09-12T01:19:34.783Z,85.91
2018-09-12T01:20:36.165Z,86.11
2018-09-12T01:21:37.556Z,86.11
2018-09-12T01:22:39.492Z,85.91
2018-09-12T01:23:40.884Z,85.91
2018-09-12T01:24:42.261Z,86.01
2018-09-12T01:25:43.650Z,86.21
2018-09-12T01:26:45.041Z,85.91
2018-09-12T01:27:46.434Z,85.96
2018-09-12T01:28:49.655Z,86.30
2018-09-12T01:29:51.583Z,85.91
2018-09-12T01:30:52.970Z,86.21
2018-09-12T01:31:54.358Z,86.49
2018-09-12T01:32:55.753Z,86.40
2018-09-12T01:33:57.137Z,86.40
2018-09-12T01:34:58.523Z,86.30
2018-09-12T01:35:59.916Z,86.21
2018-09-12T01:37:01.297Z,86.49
2018-09-12T01:38:02.683Z,86.59
2018-09-12T01:39:04.073Z,86.59
2018-09-12T01:40:05.457Z,86.49
2018-09-12T01:41:06.847Z,86.78
2018-09-12T01:42:08.239Z,86.49
2018-09-12T01:43:09.618Z,86.69
2018-09-12T01:44:11.014Z,87.26
2018-09-12T01:45:12.988Z,87.07
2018-09-12T01:46:15.254Z,86.98
2018-09-12T01:47:17.457Z,87.07
2018-09-12T01:48:18.850Z,86.98
2018-09-12T01:49:20.240Z,87.17
2018-09-12T01:50:21.629Z,87.36
2018-09-12T01:51:23.012Z,87.26
2018-09-12T01:52:24.399Z,86.78
2018-09-12T01:53:25.786Z,86.78
2018-09-12T01:54:27.173Z,86.49
2018-09-12T01:55:28.556Z,86.78
2018-09-12T01:56:29.940Z,86.40
2018-09-12T01:57:31.325Z,86.49
2018-09-12T01:58:32.715Z,86.49
2018-09-12T01:59:34.099Z,86.98
2018-09-12T02:00:35.481Z,86.40
2018-09-12T02:01:36.875Z,86.40
2018-09-12T02:02:38.257Z,86.40
2018-09-12T02:03:39.645Z,86.49
2018-09-12T02:04:41.031Z,86.49
2018-09-12T02:05:42.419Z,86.40
2018-09-12T02:06:43.815Z,86.40
2018-09-12T02:07:45.194Z,86.01
2018-09-12T02:08:46.577Z,85.91
2018-09-12T02:09:49.481Z,86.11
2018-09-12T02:10:50.867Z,86.40
2018-09-12T02:11:52.828Z,86.49
2018-09-12T02:12:54.224Z,86.40
2018-09-12T02:13:55.610Z,86.40
2018-09-12T02:14:57.667Z,86.49
2018-09-12T02:15:59.577Z,86.59
2018-09-12T02:17:01.843Z,86.40
2018-09-12T02:18:03.241Z,86.59
2018-09-12T02:19:04.630Z,86.59
2018-09-12T02:20:06.027Z,86.69
2018-09-12T02:21:07.408Z,86.88
2018-09-12T02:22:08.790Z,86.78
2018-09-12T02:23:10.186Z,86.49
2018-09-12T02:24:11.576Z,87.07
2018-09-12T02:25:12.964Z,87.07
2018-09-12T02:26:14.349Z,87.36
2018-09-12T02:27:15.742Z,87.26
2018-09-12T02:28:17.147Z,86.98
2018-09-12T02:29:18.531Z,87.17
2018-09-12T02:30:19.921Z,87.17
2018-09-12T02:31:21.308Z,87.74
2018-09-12T02:32:22.687Z,87.74
2018-09-12T02:33:24.075Z,87.17
2018-09-12T02:34:26.360Z,87.36
2018-09-12T02:35:27.751Z,88.04
2018-09-12T02:36:29.132Z,86.98
2018-09-12T02:37:30.525Z,87.65
2018-09-12T02:38:31.919Z,87.55
2018-09-12T02:39:33.317Z,87.84
2018-09-12T02:40:34.703Z,87.65
2018-09-12T02:41:36.727Z,87.65
2018-09-12T02:42:38.118Z,87.70
2018-09-12T02:43:39.510Z,87.41
2018-09-12T02:44:40.889Z,88.13
2018-09-12T02:45:42.942Z,87.60
2018-09-12T02:46:44.336Z,87.65
2018-09-12T02:47:45.717Z,87.60
2018-09-12T02:48:47.108Z,87.84
2018-09-12T02:49:49.804Z,86.83
2018-09-12T02:50:51.186Z,87.51
2018-09-12T02:51:52.577Z,87.60
2018-09-12T02:52:53.956Z,87.51
2018-09-12T02:53:56.848Z,87.60
2018-09-12T02:54:57.237Z,87.90
2018-09-12T02:55:58.623Z,87.41
2018-09-12T02:57:00.871Z,87.70
2018-09-12T02:58:02.281Z,87.22
2018-09-12T02:59:04.203Z,88.38
2018-09-12T03:00:05.594Z,87.41
2018-09-12T03:01:06.979Z,87.41
2018-09-12T03:02:09.236Z,87.41
2018-09-12T03:03:10.620Z,87.70
2018-09-12T03:04:12.494Z,87.60
2018-09-12T03:05:13.886Z,87.70
2018-09-12T03:06:15.275Z,87.41
2018-09-12T03:07:17.076Z,87.51
2018-09-12T03:08:19.254Z,87.70
2018-09-12T03:09:20.644Z,87.80
2018-09-12T03:10:22.029Z,87.70
2018-09-12T03:11:23.418Z,87.41
2018-09-12T03:12:24.796Z,87.41
2018-09-12T03:13:26.184Z,87.80
2018-09-12T03:14:28.475Z,87.56
2018-09-12T03:15:29.869Z,87.80
2018-09-12T03:16:31.255Z,87.70
2018-09-12T03:17:33.385Z,87.32
2018-09-12T03:18:34.769Z,87.66
2018-09-12T03:19:36.159Z,87.70
2018-09-12T03:20:37.570Z,87.85
2018-09-12T03:21:38.943Z,87.70
2018-09-12T03:22:43.417Z,87.27
2018-09-12T03:23:44.795Z,87.60
2018-09-12T03:24:46.187Z,87.51
2018-09-12T03:25:47.575Z,87.37
2018-09-12T03:26:48.960Z,87.95
2018-09-12T03:27:50.346Z,87.66
2018-09-12T03:28:51.747Z,87.08
2018-09-12T03:29:53.149Z,87.27
2018-09-12T03:30:54.528Z,87.60
2018-09-12T03:31:55.917Z,87.56
2018-09-12T03:32:57.304Z,87.18
2018-09-12T03:33:58.690Z,87.08
2018-09-12T03:35:00.080Z,86.89
2018-09-12T03:36:02.706Z,86.99
2018-09-12T03:37:04.089Z,86.51
2018-09-12T03:38:05.475Z,86.22
2018-09-12T03:39:06.856Z,86.41
2018-09-12T03:40:09.113Z,86.31
2018-09-12T03:41:11.465Z,86.41
2018-09-12T03:42:12.854Z,86.51
2018-09-12T03:43:14.245Z,86.69
2018-09-12T03:44:15.631Z,86.31
2018-09-12T03:45:17.011Z,86.41
2018-09-12T03:46:18.402Z,86.22
2018-09-12T03:47:19.793Z,86.02
2018-09-12T03:48:21.183Z,85.74
2018-09-12T03:49:22.571Z,85.64
2018-09-12T03:50:24.814Z,85.54
2018-09-12T03:51:26.198Z,86.12
2018-09-12T03:52:27.586Z,85.83
2018-09-12T03:53:28.977Z,85.74
2018-09-12T03:54:30.368Z,85.83
2018-09-12T03:55:31.758Z,85.74
2018-09-12T03:56:33.154Z,85.64
2018-09-12T03:57:34.535Z,85.44
2018-09-12T03:58:35.924Z,85.54
2018-09-12T03:59:37.313Z,85.44
2018-09-12T04:00:39.236Z,85.54
2018-09-12T04:01:40.619Z,86.12
2018-09-12T04:02:42.630Z,86.12
2018-09-12T04:03:43.964Z,85.64
2018-09-12T04:04:45.353Z,84.97
2018-09-12T04:05:46.743Z,84.97
2018-09-12T04:06:48.117Z,84.87
2018-09-12T04:07:50.445Z,84.87
2018-09-12T04:08:51.835Z,83.91
2018-09-12T04:09:53.227Z,84.29
2018-09-12T04:10:54.615Z,84.06
2018-09-12T04:11:55.998Z,83.72
2018-09-12T04:12:57.385Z,83.62
2018-09-12T04:13:58.770Z,83.48
2018-09-12T04:15:00.165Z,82.81
2018-09-12T04:16:02.849Z,83.04
2018-09-12T04:17:05.116Z,83.29
2018-09-12T04:18:06.501Z,82.61
2018-09-12T04:19:07.894Z,82.32
2018-09-12T04:20:10.054Z,82.52
2018-09-12T04:21:11.443Z,82.61
2018-09-12T04:22:12.833Z,82.71
2018-09-12T04:23:14.218Z,82.71
2018-09-12T04:24:15.641Z,82.81
2018-09-12T04:25:17.009Z,82.81
2018-09-12T04:26:18.398Z,82.61
2018-09-12T04:27:20.718Z,82.90
2018-09-12T04:28:22.107Z,82.90
2018-09-12T04:29:23.496Z,82.42
2018-09-12T04:30:26.384Z,83.19
2018-09-12T04:31:26.931Z,82.32
2018-09-12T04:32:28.319Z,82.52
2018-09-12T04:33:30.525Z,83.29
2018-09-12T04:34:32.732Z,82.81
2018-09-12T04:35:34.111Z,82.42
2018-09-12T04:36:35.503Z,83.09
2018-09-12T04:37:36.891Z,82.90
2018-09-12T04:38:38.836Z,82.71
2018-09-12T04:39:40.221Z,83.06
2018-09-12T04:40:41.613Z,83.25
2018-09-12T04:41:43.000Z,83.58
2018-09-12T04:42:44.402Z,83.06
2018-09-12T04:43:45.773Z,83.44
2018-09-12T04:44:47.157Z,83.53
2018-09-12T04:45:48.546Z,83.83
2018-09-12T04:46:51.161Z,83.15
2018-09-12T04:47:54.763Z,83.63
2018-09-12T04:48:56.156Z,83.83
2018-09-12T04:49:57.576Z,83.73
2018-09-12T04:50:58.972Z,83.63
2018-09-12T04:52:00.362Z,83.44
2018-09-12T04:53:01.758Z,83.92
2018-09-12T04:54:03.145Z,84.21
2018-09-12T04:55:05.054Z,83.83
2018-09-12T04:56:07.396Z,84.01
2018-09-12T04:57:07.779Z,84.21
2018-09-12T04:58:09.172Z,84.40
2018-09-12T04:59:10.557Z,84.50
2018-09-12T05:00:11.947Z,84.50
2018-09-12T05:01:13.337Z,84.21
2018-09-12T05:02:15.897Z,84.78
2018-09-12T05:03:16.629Z,84.69
2018-09-12T05:04:18.561Z,84.40
2018-09-12T05:05:19.971Z,85.07
2018-09-12T05:06:21.368Z,84.88
2018-09-12T05:07:24.255Z,84.59
2018-09-12T05:08:26.145Z,85.27
2018-09-12T05:09:28.803Z,84.98
2018-09-12T05:10:30.193Z,84.78
2018-09-12T05:11:31.582Z,85.27
2018-09-12T05:12:32.980Z,85.61
2018-09-12T05:13:34.850Z,86.13
2018-09-12T05:14:36.244Z,85.75
2018-09-12T05:15:37.638Z,86.09
2018-09-12T05:16:39.147Z,86.13
2018-09-12T05:17:40.414Z,85.94
2018-09-12T05:18:42.409Z,85.71
2018-09-12T05:19:43.819Z,85.61
2018-09-12T05:20:45.229Z,86.18
2018-09-12T05:21:46.615Z,86.57
2018-09-12T05:22:48.008Z,86.57
2018-09-12T05:23:49.400Z,86.28
2018-09-12T05:24:50.798Z,86.18
2018-09-12T05:25:53.080Z,86.66
2018-09-12T05:26:54.462Z,86.85
2018-09-12T05:27:55.876Z,86.57
2018-09-12T05:28:58.990Z,86.47
2018-09-12T05:30:00.379Z,86.85
2018-09-12T05:31:01.766Z,86.76
2018-09-12T05:32:03.165Z,86.85
2018-09-12T05:33:05.091Z,86.47
2018-09-12T05:34:06.493Z,86.85
2018-09-12T05:35:08.383Z,86.76
2018-09-12T05:36:09.875Z,86.95
2018-09-12T05:37:11.255Z,86.66
2018-09-12T05:38:13.361Z,86.76
2018-09-12T05:39:14.765Z,86.85
2018-09-12T05:40:16.183Z,86.85
2018-09-12T05:41:19.176Z,86.80
2018-09-12T05:42:22.053Z,87.09
2018-09-12T05:43:23.438Z,86.85
2018-09-12T05:44:24.849Z,87.19
2018-09-12T05:45:28.860Z,86.99
2018-09-12T05:46:30.249Z,86.90
2018-09-12T05:47:32.141Z,86.32
2018-09-12T05:48:33.570Z,86.80
2018-09-12T05:49:35.032Z,86.52
2018-09-12T05:50:36.424Z,86.22
2018-09-12T05:51:37.830Z,86.32
2018-09-12T05:52:39.231Z,86.42
2018-09-12T05:53:40.597Z,86.22
2018-09-12T05:54:42.784Z,86.85
2018-09-12T05:55:44.168Z,86.52
2018-09-12T05:56:45.564Z,86.27
2018-09-12T05:57:46.951Z,86.65
2018-09-12T05:58:48.486Z,86.18
2018-09-12T05:59:50.445Z,86.71
2018-09-12T06:00:51.943Z,86.18
2018-09-12T06:01:53.335Z,86.65
2018-09-12T06:02:54.745Z,85.88
2018-09-12T06:03:56.177Z,86.08
2018-09-12T06:04:57.638Z,85.78
2018-09-12T06:05:59.022Z,85.98
2018-09-12T06:07:00.514Z,86.18
2018-09-12T06:08:01.827Z,85.50
2018-09-12T06:09:03.211Z,85.60
2018-09-12T06:10:04.631Z,85.44
2018-09-12T06:11:06.773Z,85.40
2018-09-12T06:12:09.056Z,85.35
2018-09-12T06:13:11.845Z,85.44
2018-09-12T06:14:13.691Z,85.06
2018-09-12T06:15:15.022Z,85.44
2018-09-12T06:16:16.406Z,85.44
2018-09-12T06:17:17.788Z,85.44
2018-09-12T06:18:19.182Z,85.44
2018-09-12T06:19:21.066Z,85.44
2018-09-12T06:20:22.448Z,85.44
2018-09-12T06:21:23.838Z,85.44
2018-09-12T06:22:25.235Z,85.06
2018-09-12T06:23:26.629Z,85.35
2018-09-12T06:24:28.701Z,85.16
2018-09-12T06:25:31.664Z,85.44
2018-09-12T06:26:33.625Z,85.74
2018-09-12T06:27:35.025Z,85.64
2018-09-12T06:28:37.069Z,85.64
2018-09-12T06:29:38.454Z,85.64
2018-09-12T06:30:39.919Z,85.44
2018-09-12T06:31:41.236Z,85.16
2018-09-12T06:32:42.623Z,85.16
2018-09-12T06:33:44.015Z,85.16
2018-09-12T06:34:45.406Z,85.35
2018-09-12T06:35:46.793Z,85.16
2018-09-12T06:36:48.190Z,84.97
2018-09-12T06:37:49.628Z,85.35
2018-09-12T06:38:50.972Z,84.81
2018-09-12T06:39:52.357Z,84.91
2018-09-12T06:40:53.758Z,85.00
2018-09-12T06:41:55.138Z,84.91
2018-09-12T06:42:56.552Z,85.00
2018-09-12T06:43:57.935Z,84.53
2018-09-12T06:45:00.308Z,84.53
2018-09-12T06:46:01.704Z,84.72
2018-09-12T06:47:04.453Z,84.23
2018-09-12T06:48:05.848Z,84.62
2018-09-12T06:49:07.238Z,84.43
2018-09-12T06:50:09.500Z,84.53
2018-09-12T06:51:11.806Z,84.33
2018-09-12T06:52:13.192Z,84.14
2018-09-12T06:53:15.873Z,84.33
2018-09-12T06:54:17.264Z,84.33
2018-09-12T06:55:18.677Z,84.14
2018-09-12T06:56:20.065Z,84.14
2018-09-12T06:57:21.479Z,84.05
2018-09-12T06:58:23.452Z,84.14
2018-09-12T06:59:25.419Z,84.05
2018-09-12T07:00:26.812Z,83.56
2018-09-12T07:01:28.205Z,83.75
2018-09-12T07:02:29.587Z,83.37
2018-09-12T07:03:30.977Z,83.66
2018-09-12T07:04:32.368Z,83.56
2018-09-12T07:05:33.761Z,83.75
2018-09-12T07:06:36.029Z,83.66
2018-09-12T07:07:37.456Z,83.47
2018-09-12T07:08:38.811Z,83.75
2018-09-12T07:09:40.899Z,83.66
2018-09-12T07:10:42.289Z,83.37
2018-09-12T07:11:43.684Z,82.89
2018-09-12T07:12:45.076Z,83.28
2018-09-12T07:13:46.465Z,83.47
2018-09-12T07:14:47.879Z,82.60
2018-09-12T07:15:49.275Z,82.74
2018-09-12T07:16:50.662Z,83.12
2018-09-12T07:17:52.056Z,82.83
2018-09-12T07:18:53.458Z,82.45
2018-09-12T07:19:54.852Z,82.54
2018-09-12T07:20:57.411Z,82.16
2018-09-12T07:21:58.790Z,82.35
2018-09-12T07:23:00.872Z,81.68
2018-09-12T07:24:02.270Z,81.10
2018-09-12T07:25:03.652Z,81.39
2018-09-12T07:26:05.048Z,81.33
2018-09-12T07:27:06.446Z,81.10
2018-09-12T07:28:07.836Z,80.71
2018-09-12T07:29:09.234Z,80.66
2018-09-12T07:30:10.645Z,80.66
2018-09-12T07:31:12.820Z,80.37
2018-09-12T07:32:14.220Z,80.08
2018-09-12T07:33:15.613Z,79.74
2018-09-12T07:34:17.864Z,78.96
2018-09-12T07:35:19.259Z,78.67
2018-09-12T07:36:20.648Z,78.86
2018-09-12T07:37:22.043Z,76.98
2018-09-12T07:38:24.159Z,76.50
2018-09-12T07:39:25.557Z,75.95
2018-09-12T07:40:26.981Z,74.89
2018-09-12T07:41:28.436Z,73.96
2018-09-12T07:42:29.765Z,73.77
2018-09-12T07:43:31.164Z,72.64
2018-09-12T07:44:33.123Z,71.78
2018-09-12T07:45:34.526Z,71.30
2018-09-12T07:46:37.542Z,71.10
2018-09-12T07:47:40.654Z,71.39
2018-09-12T07:48:42.044Z,70.90
2018-09-12T07:49:43.441Z,70.84
2018-09-12T07:50:44.843Z,69.43
2018-09-12T07:51:46.231Z,68.69
2018-09-12T07:52:47.635Z,66.72
2018-09-12T07:53:49.657Z,65.01
2018-09-12T07:54:52.255Z,63.69
2018-09-12T07:55:54.470Z,61.98
2018-09-12T07:56:55.855Z,61.65
2018-09-12T07:57:57.255Z,59.90
2018-09-12T07:58:58.642Z,58.89
2018-09-12T08:00:00.124Z,57.72
2018-09-12T08:01:01.462Z,56.10
2018-09-12T08:02:02.862Z,55.93
2018-09-12T08:03:04.256Z,55.35
2018-09-12T08:04:05.654Z,55.35
2018-09-12T08:05:07.104Z,55.15
2018-09-12T08:06:08.516Z,55.25
2018-09-12T08:07:10.527Z,55.74
2018-09-12T08:08:12.706Z,55.44
2018-09-12T08:09:15.301Z,55.83
2018-09-12T08:10:16.693Z,55.35
2018-09-12T08:11:18.096Z,55.35
2018-09-12T08:12:19.560Z,55.37
2018-09-12T08:13:20.856Z,55.25
2018-09-12T08:14:22.257Z,56.22
2018-09-12T08:15:23.656Z,56.32
2018-09-12T08:16:25.064Z,55.83
2018-09-12T08:17:26.461Z,55.74
2018-09-12T08:18:28.465Z,55.47
2018-09-12T08:19:31.685Z,55.37
2018-09-12T08:20:33.091Z,54.99
2018-09-12T08:21:34.562Z,55.35
2018-09-12T08:22:37.545Z,56.22
2018-09-12T08:23:38.933Z,56.03
2018-09-12T08:24:40.342Z,55.93
2018-09-12T08:25:41.756Z,56.03
2018-09-12T08:26:43.229Z,55.11
2018-09-12T08:27:44.564Z,54.62
2018-09-12T08:28:48.598Z,54.52
2018-09-12T08:29:50.541Z,54.13
2018-09-12T08:30:51.947Z,54.66
2018-09-12T08:31:53.348Z,55.93
2018-09-12T08:32:55.704Z,55.83
2018-09-12T08:33:57.791Z,56.95
2018-09-12T08:35:00.824Z,57.89
2018-09-12T08:36:04.605Z,59.51
2018-09-12T08:37:06.099Z,60.45
2018-09-12T08:38:07.496Z,61.07
2018-09-12T08:39:09.687Z,61.32
2018-09-12T08:40:11.071Z,61.88
2018-09-12T08:41:12.474Z,62.82
2018-09-12T08:42:13.979Z,64.04
2018-09-12T08:43:15.303Z,64.62
2018-09-12T08:44:16.702Z,65.75
2018-09-12T08:45:18.087Z,66.82
2018-09-12T08:46:20.121Z,67.27
2018-09-12T08:47:21.522Z,68.24
2018-09-12T08:48:23.625Z,68.43
2018-09-12T08:49:25.019Z,68.63
2018-09-12T08:50:28.077Z,68.88
2018-09-12T08:51:30.413Z,69.75
2018-09-12T08:52:33.581Z,70.20
2018-09-12T08:53:35.138Z,70.40
2018-09-12T08:54:37.508Z,71.23
2018-09-12T08:55:38.958Z,72.06
2018-09-12T08:56:40.921Z,73.58
2018-09-12T08:57:42.285Z,74.44
2018-09-12T08:58:43.711Z,74.83
2018-09-12T08:59:47.008Z,75.51
2018-09-12T09:00:47.385Z,75.37
2018-09-12T09:01:48.775Z,75.18
2018-09-12T09:02:50.172Z,75.37
2018-09-12T09:03:52.478Z,75.27
2018-09-12T09:04:53.880Z,75.76
2018-09-12T09:05:55.482Z,75.85
2018-09-12T09:06:57.344Z,76.01
2018-09-12T09:07:58.741Z,76.59
2018-09-12T09:09:01.093Z,76.98
2018-09-12T09:10:02.532Z,77.61
2018-09-12T09:11:04.932Z,78.09
2018-09-12T09:12:06.325Z,78.15
2018-09-12T09:13:08.700Z,78.92
2018-09-12T09:14:10.105Z,79.50
2018-09-12T09:15:11.502Z,79.31
2018-09-12T09:16:12.900Z,79.31
2018-09-12T09:17:15.240Z,79.50
2018-09-12T09:18:16.756Z,79.75
2018-09-12T09:19:18.762Z,80.52
2018-09-12T09:20:22.363Z,80.91
2018-09-12T09:21:23.821Z,81.39
2018-09-12T09:22:26.119Z,81.10
2018-09-12T09:23:28.482Z,81.10
2018-09-12T09:24:29.879Z,80.85
2018-09-12T09:25:31.270Z,80.81
2018-09-12T09:26:32.674Z,80.56
2018-09-12T09:27:35.736Z,79.41
2018-09-12T09:28:40.152Z,79.41
2018-09-12T09:29:43.141Z,79.69
2018-09-12T09:30:45.424Z,80.18
2018-09-12T09:31:47.608Z,79.69
2018-09-12T09:32:49.051Z,79.41
2018-09-12T09:33:50.404Z,79.11
2018-09-12T09:34:51.831Z,79.41
2018-09-12T09:35:53.274Z,79.06
2018-09-12T09:36:55.592Z,78.48
2018-09-12T09:37:57.689Z,77.23
2018-09-12T09:38:59.088Z,77.71
2018-09-12T09:40:03.606Z,77.23
2018-09-12T09:41:05.061Z,76.75
2018-09-12T09:42:07.494Z,77.07
2018-09-12T09:43:08.884Z,77.07
2018-09-12T09:44:10.351Z,76.88
2018-09-12T09:45:12.375Z,76.68
2018-09-12T09:46:13.781Z,76.50
2018-09-12T09:47:15.701Z,76.98
2018-09-12T09:48:17.980Z,76.50
2018-09-12T09:49:19.361Z,76.84
2018-09-12T09:50:20.763Z,77.13
2018-09-12T09:51:22.154Z,77.03
2018-09-12T09:52:24.085Z,77.03
2018-09-12T09:53:25.479Z,77.07
2018-09-12T09:54:26.867Z,77.42
2018-09-12T09:55:28.262Z,76.98
2018-09-12T09:56:30.616Z,77.17
2018-09-12T09:57:32.097Z,77.65
2018-09-12T09:58:33.475Z,77.65
2018-09-12T09:59:35.258Z,77.26
2018-09-12T10:00:36.744Z,77.03
2018-09-12T10:01:38.144Z,77.42
2018-09-12T10:02:39.542Z,77.23
2018-09-12T10:03:40.940Z,77.51
2018-09-12T10:04:43.108Z,77.55
2018-09-12T10:05:44.556Z,77.17
2018-09-12T10:06:45.972Z,76.88
2018-09-12T10:07:47.364Z,76.98
2018-09-12T10:08:48.769Z,77.17
2018-09-12T10:09:50.163Z,76.78
2018-09-12T10:10:51.566Z,76.98
2018-09-12T10:11:53.034Z,76.88
2018-09-12T10:12:54.370Z,76.88
2018-09-12T10:13:56.374Z,77.42
2018-09-12T10:14:58.289Z,77.61
2018-09-12T10:16:00.266Z,78.09
2018-09-12T10:17:01.676Z,78.29
2018-09-12T10:18:04.023Z,78.58
2018-09-12T10:19:06.137Z,78.09
2018-09-12T10:20:07.621Z,78.38
2018-09-12T10:21:09.636Z,79.16
2018-09-12T10:22:11.035Z,78.29
2018-09-12T10:23:12.438Z,78.09
2018-09-12T10:24:15.646Z,78.09
2018-09-12T10:25:16.961Z,78.19
2018-09-12T10:26:18.366Z,78.00
2018-09-12T10:27:20.549Z,78.48
2018-09-12T10:28:21.659Z,78.48
2018-09-12T10:29:23.054Z,78.77
2018-09-12T10:30:26.052Z,78.73
2018-09-12T10:31:27.549Z,78.92
2018-09-12T10:32:28.939Z,79.11
2018-09-12T10:33:30.330Z,79.31
2018-09-12T10:34:31.773Z,79.89
2018-09-12T10:35:34.051Z,79.69
2018-09-12T10:36:34.588Z,80.18
2018-09-12T10:37:35.984Z,80.37
2018-09-12T10:38:37.384Z,80.33
2018-09-12T10:39:39.266Z,81.14
2018-09-12T10:40:40.705Z,80.81
2018-09-12T10:41:43.027Z,80.62
2018-09-12T10:42:44.424Z,80.91
2018-09-12T10:43:45.834Z,81.01
2018-09-12T10:44:48.064Z,81.29
2018-09-12T10:45:49.494Z,81.68
2018-09-12T10:46:50.901Z,81.20
2018-09-12T10:47:52.309Z,80.46
2018-09-12T10:48:54.676Z,79.36
2018-09-12T10:49:56.179Z,79.27
2018-09-12T10:50:57.583Z,79.08
2018-09-12T10:51:59.016Z,78.79
2018-09-12T10:53:00.621Z,78.50
2018-09-12T10:54:02.096Z,79.03
2018-09-12T10:55:03.710Z,78.94
2018-09-12T10:56:06.099Z,78.56
2018-09-12T10:57:07.991Z,78.75
2018-09-12T10:58:09.382Z,79.23
2018-09-12T10:59:10.823Z,79.13
2018-09-12T11:00:12.212Z,78.71
2018-09-12T11:01:13.612Z,79.19
2018-09-12T11:02:15.014Z,79.86
2018-09-12T11:03:16.404Z,79.67
2018-09-12T11:04:18.748Z,79.58
2018-09-12T11:05:20.116Z,79.96
2018-09-12T11:06:21.539Z,79.86
2018-09-12T11:07:22.940Z,79.86
2018-09-12T11:08:24.334Z,79.96
2018-09-12T11:09:25.728Z,79.86
2018-09-12T11:10:27.116Z,80.06
2018-09-12T11:11:28.520Z,79.58
2018-09-12T11:12:30.446Z,79.19
2018-09-12T11:13:31.840Z,78.90
2018-09-12T11:14:33.832Z,79.19
2018-09-12T11:15:35.325Z,79.38
2018-09-12T11:16:36.721Z,78.85
2018-09-12T11:17:38.989Z,78.94
2018-09-12T11:18:40.393Z,78.94
2018-09-12T11:19:43.495Z,78.85
2018-09-12T11:20:44.925Z,78.46
2018-09-12T11:21:46.319Z,78.65
2018-09-12T11:22:47.721Z,78.50
2018-09-12T11:23:50.122Z,78.50
2018-09-12T11:24:50.450Z,78.40
2018-09-12T11:25:51.876Z,77.73
2018-09-12T11:26:53.276Z,77.63
2018-09-12T11:27:54.671Z,77.06
2018-09-12T11:28:56.071Z,77.34
2018-09-12T11:29:57.461Z,77.38
2018-09-12T11:30:58.854Z,77.15
2018-09-12T11:32:00.253Z,77.19
2018-09-12T11:33:01.659Z,76.80
2018-09-12T11:34:03.041Z,76.67
2018-09-12T11:35:04.436Z,76.18
2018-09-12T11:36:05.838Z,76.18
2018-09-12T11:37:07.239Z,76.86
2018-09-12T11:38:08.631Z,76.86
2018-09-12T11:39:10.026Z,77.15
2018-09-12T11:40:11.432Z,76.96
2018-09-12T11:41:12.821Z,76.86
2018-09-12T11:42:14.229Z,77.15
2018-09-12T11:43:15.627Z,77.25
2018-09-12T11:44:17.023Z,77.15
2018-09-12T11:45:18.418Z,77.06
2018-09-12T11:46:19.811Z,76.76
2018-09-12T11:47:21.230Z,77.34
2018-09-12T11:48:23.173Z,77.63
2018-09-12T11:49:24.563Z,77.01
2018-09-12T11:50:25.957Z,77.31
2018-09-12T11:51:27.369Z,77.31
2018-09-12T11:52:28.762Z,76.82
2018-09-12T11:53:30.816Z,77.88
2018-09-12T11:54:32.200Z,77.94
2018-09-12T11:55:34.104Z,78.33
2018-09-12T11:56:35.396Z,78.61
2018-09-12T11:57:36.814Z,79.00
2018-09-12T11:58:38.200Z,79.35
2018-09-12T11:59:40.510Z,79.38
2018-09-12T12:00:41.890Z,79.44
2018-09-12T12:01:43.290Z,79.86
2018-09-12T12:02:44.682Z,80.98
2018-09-12T12:03:46.082Z,81.07
2018-09-12T12:04:47.481Z,81.17
2018-09-12T12:05:49.593Z,81.75
2018-09-12T12:06:51.009Z,81.75
2018-09-12T12:07:53.223Z,82.14
2018-09-12T12:08:54.615Z,82.14
2018-09-12T12:09:56.037Z,82.32
2018-09-12T12:10:57.426Z,82.61
2018-09-12T12:12:00.380Z,82.71
2018-09-12T12:13:01.757Z,82.90
2018-09-12T12:14:04.157Z,82.86
2018-09-12T12:15:05.547Z,82.86
2018-09-12T12:16:08.166Z,82.76
2018-09-12T12:17:09.582Z,83.34
2018-09-12T12:18:11.497Z,83.63
2018-09-12T12:19:12.883Z,83.63
2018-09-12T12:20:14.284Z,83.73
2018-09-12T12:21:15.671Z,83.63
2018-09-12T12:22:17.067Z,83.92
2018-09-12T12:23:18.478Z,83.83
2018-09-12T12:24:19.805Z,84.21
2018-09-12T12:25:21.198Z,83.92
2018-09-12T12:26:22.600Z,83.63
2018-09-12T12:27:24.039Z,83.59
2018-09-12T12:28:25.431Z,83.83
2018-09-12T12:29:26.863Z,84.30
2018-09-12T12:30:28.257Z,83.34
2018-09-12T12:31:29.646Z,83.73
2018-09-12T12:32:31.052Z,84.01
2018-09-12T12:33:32.444Z,84.69
2018-09-12T12:34:33.834Z,84.21
2018-09-12T12:35:35.218Z,84.59
2018-09-12T12:36:36.609Z,84.21
2018-09-12T12:37:38.001Z,84.21
2018-09-12T12:38:39.394Z,84.21
2018-09-12T12:39:40.791Z,84.21
2018-09-12T12:40:42.183Z,84.59
2018-09-12T12:41:43.570Z,84.50
2018-09-12T12:42:44.978Z,84.21
2018-09-12T12:43:46.377Z,84.88
2018-09-12T12:44:47.768Z,84.69
2018-09-12T12:45:49.162Z,84.40
2018-09-12T12:46:50.560Z,84.69
2018-09-12T12:47:51.948Z,84.11
2018-09-12T12:48:53.346Z,84.11
2018-09-12T12:49:54.738Z,84.11
2018-09-12T12:50:56.123Z,84.11
2018-09-12T12:51:57.521Z,84.69
2018-09-12T12:52:58.940Z,84.84
2018-09-12T12:54:00.329Z,84.84
2018-09-12T12:55:01.730Z,84.98
2018-09-12T12:56:03.121Z,84.40
2018-09-12T12:57:04.510Z,84.50
2018-09-12T12:58:05.918Z,84.88
2018-09-12T12:59:07.274Z,84.69
2018-09-12T13:00:08.669Z,84.59
2018-09-12T13:01:10.065Z,84.40
2018-09-12T13:02:11.481Z,84.40
2018-09-12T13:03:12.872Z,85.27
2018-09-12T13:04:14.261Z,84.40
2018-09-12T13:05:15.649Z,84.50
2018-09-12T13:06:17.047Z,84.50
2018-09-12T13:07:18.445Z,84.40
2018-09-12T13:08:19.844Z,85.07
2018-09-12T13:09:21.235Z,85.51
2018-09-12T13:10:22.637Z,85.55
2018-09-12T13:11:24.023Z,85.55
2018-09-12T13:12:25.462Z,85.71
2018-09-12T13:13:26.835Z,86.28